Time;durP1;ratioP1;P1;durP2;ratioP2;P2;SDS_P1;SDS_P2;PMS_P1;PMS_P2;Temp;Humidity;BMP_temperature;BMP_pressure;BME280_temperature;BME280_humidity;BME280_pressure;Samples;Min_cycle;Max_cycle;Signal;HPM_P1;HPM_P2
2022/08/04 00:00:34;;;;;;;10.13;3.10;;;22.80;99.90;;;;;;6059826;23;20397;-91
2022/08/04 00:03:14;;;;;;;8.18;3.05;;;22.80;99.90;;;;;;6059635;23;20026;-92
2022/08/04 00:05:53;;;;;;;6.20;2.63;;;22.80;99.90;;;;;;6060750;23;20019;-92
2022/08/04 00:08:29;;;;;;;8.15;2.65;;;22.80;99.90;;;;;;6058831;23;20029;-92
2022/08/04 00:10:58;;;;;;;7.95;2.75;;;22.80;99.90;;;;;;6061258;23;20023;-92
2022/08/04 00:13:27;;;;;;;9.52;3.20;;;22.80;99.90;;;;;;6058565;23;20038;-91
2022/08/04 00:15:55;;;;;;;10.73;2.70;;;22.70;99.90;;;;;;6059506;23;20081;-92
2022/08/04 00:18:28;;;;;;;10.30;3.20;;;22.70;99.90;;;;;;6058367;23;20030;-91
2022/08/04 00:20:58;;;;;;;7.50;2.90;;;22.70;99.90;;;;;;6059082;23;20033;-92
2022/08/04 00:23:27;;;;;;;6.10;3.00;;;22.70;99.90;;;;;;6058898;23;20030;-92
2022/08/04 00:25:54;;;;;;;7.70;2.80;;;22.70;99.90;;;;;;6059303;23;20022;-91
2022/08/04 00:28:21;;;;;;;8.57;2.90;;;22.60;99.90;;;;;;6060691;23;20015;-92
2022/08/04 00:30:49;;;;;;;10.48;2.90;;;22.60;99.90;;;;;;6059046;23;20449;-92
2022/08/04 00:33:19;;;;;;;11.27;3.20;;;22.60;99.90;;;;;;6058825;23;20026;-92
2022/08/04 00:35:48;;;;;;;6.97;2.92;;;22.60;99.90;;;;;;6059195;23;20027;-92
2022/08/04 00:38:16;;;;;;;8.68;3.35;;;22.60;99.90;;;;;;6060732;23;20437;-92
2022/08/04 00:40:51;;;;;;;9.20;3.60;;;22.50;99.90;;;;;;6059287;23;20023;-92
2022/08/04 00:43:28;;;;;;;10.52;3.70;;;22.60;99.90;;;;;;6058972;23;20455;-92
2022/08/04 00:46:27;;;;;;;8.65;3.50;;;22.50;99.90;;;;;;6060872;23;20023;-92
2022/08/04 00:49:17;;;;;;;10.38;3.67;;;22.40;99.90;;;;;;6060190;23;20039;-92
2022/08/04 00:51:49;;;;;;;15.55;3.75;;;22.50;99.90;;;;;;6058732;23;20034;-92
2022/08/04 00:54:26;;;;;;;9.82;3.47;;;22.50;99.90;;;;;;6058986;23;20077;-90
2022/08/04 00:57:14;;;;;;;7.65;3.20;;;22.50;99.90;;;;;;6058969;23;20030;-92
2022/08/04 00:59:54;;;;;;;6.47;3.20;;;22.50;99.90;;;;;;6059023;23;20461;-92
2022/08/04 01:02:29;;;;;;;8.43;3.47;;;22.40;99.90;;;;;;6058842;23;20026;-92
2022/08/04 01:05:03;;;;;;;8.73;3.13;;;22.40;99.90;;;;;;6059541;23;20508;-92
2022/08/04 01:07:57;;;;;;;11.68;3.75;;;22.40;99.90;;;;;;6060111;23;20019;-92
2022/08/04 01:10:38;;;;;;;8.65;2.90;;;22.40;99.90;;;;;;6058980;23;20109;-92
2022/08/04 01:13:38;;;;;;;8.80;3.35;;;22.40;99.90;;;;;;6060145;23;20030;-91
2022/08/04 01:16:06;;;;;;;8.38;3.47;;;22.40;99.90;;;;;;6043029;23;20034;-92
2022/08/04 01:18:36;;;;;;;5.63;3.13;;;22.30;99.90;;;;;;6059073;23;20023;-92
2022/08/04 01:21:27;;;;;;;10.65;4.07;;;22.30;99.90;;;;;;6058787;23;20450;-91
2022/08/04 01:24:12;;;;;;;7.37;2.80;;;22.30;99.90;;;;;;6060472;23;20019;-91
2022/08/04 01:26:44;;;;;;;13.18;3.28;;;22.30;99.90;;;;;;6059180;23;20026;-92
2022/08/04 01:29:13;;;;;;;7.72;3.33;;;22.30;99.90;;;;;;6058421;23;20023;-91
2022/08/04 01:32:12;;;;;;;6.63;2.78;;;22.30;99.90;;;;;;6058726;23;20027;-92
2022/08/04 01:34:43;;;;;;;8.38;3.40;;;22.30;99.90;;;;;;6095395;23;20022;-92
2022/08/04 01:37:22;;;;;;;6.38;2.90;;;22.20;99.90;;;;;;6064724;23;20540;-92
2022/08/04 01:39:51;;;;;;;9.85;2.85;;;22.20;99.90;;;;;;6058376;23;20023;-92
2022/08/04 01:42:20;;;;;;;8.40;3.20;;;22.20;99.90;;;;;;6060178;23;20034;-92
2022/08/04 01:44:50;;;;;;;7.43;3.05;;;22.20;99.90;;;;;;6060376;23;20042;-92
2022/08/04 01:47:21;;;;;;;8.55;3.30;;;22.20;99.90;;;;;;6058382;23;20528;-92
2022/08/04 01:49:50;;;;;;;9.75;3.42;;;22.20;99.90;;;;;;6058958;23;20034;-91
2022/08/04 01:52:19;;;;;;;7.35;3.20;;;22.10;99.90;;;;;;6059905;23;20685;-92
2022/08/04 01:54:46;;;;;;;7.85;3.13;;;22.10;99.90;;;;;;6059124;23;20438;-93
2022/08/04 01:57:17;;;;;;;9.20;3.17;;;22.10;99.90;;;;;;6058857;23;20381;-92
2022/08/04 01:59:46;;;;;;;8.30;3.42;;;22.10;99.90;;;;;;6059732;23;20030;-92
2022/08/04 02:02:14;;;;;;;9.38;3.40;;;22.00;99.90;;;;;;6059890;23;20030;-92
2022/08/04 02:04:42;;;;;;;10.93;4.32;;;22.00;99.90;;;;;;6058187;23;20034;-92
2022/08/04 02:07:20;;;;;;;7.53;3.58;;;22.00;99.90;;;;;;6058613;23;20511;-92
2022/08/04 02:09:56;;;;;;;10.00;3.85;;;22.00;99.90;;;;;;6058403;23;20426;-92
2022/08/04 02:12:27;;;;;;;9.40;3.63;;;22.00;99.90;;;;;;6058225;23;20100;-92
2022/08/04 02:15:02;;;;;;;13.02;3.90;;;22.00;99.90;;;;;;6058704;23;20022;-92
2022/08/04 02:17:36;;;;;;;11.10;4.07;;;21.90;99.90;;;;;;6058925;23;20564;-92
2022/08/04 02:20:07;;;;;;;7.15;3.83;;;21.90;99.90;;;;;;6058724;23;20031;-92
2022/08/04 02:22:35;;;;;;;10.73;3.53;;;21.90;99.90;;;;;;6059686;23;20031;-92
2022/08/04 02:25:06;;;;;;;10.75;3.78;;;21.90;99.90;;;;;;6060036;23;20022;-92
2022/08/04 02:27:45;;;;;;;10.90;3.78;;;21.90;99.90;;;;;;6061266;23;20090;-91
2022/08/04 02:30:12;;;;;;;12.15;3.72;;;21.90;99.90;;;;;;6059783;23;20027;-92
2022/08/04 02:32:42;;;;;;;8.73;3.70;;;21.80;99.90;;;;;;6059679;23;20034;-91
2022/08/04 02:35:13;;;;;;;10.43;3.85;;;21.80;99.90;;;;;;6061245;23;20046;-92
2022/08/04 02:37:47;;;;;;;10.27;3.55;;;21.80;99.90;;;;;;6059967;23;20050;-93
2022/08/04 02:40:20;;;;;;;11.57;3.75;;;21.80;99.90;;;;;;6059334;23;20461;-93
2022/08/04 02:42:47;;;;;;;7.57;3.38;;;21.80;99.90;;;;;;6061081;23;20022;-92
2022/08/04 02:45:19;;;;;;;8.25;3.30;;;21.80;99.90;;;;;;6061252;23;20026;-93
2022/08/04 02:47:48;;;;;;;10.07;3.22;;;21.80;99.90;;;;;;6059243;23;20077;-92
2022/08/04 02:50:16;;;;;;;10.50;3.38;;;21.80;99.90;;;;;;6061404;23;20102;-93
2022/08/04 02:52:56;;;;;;;10.38;3.28;;;21.70;99.90;;;;;;6059952;23;20050;-92
2022/08/04 02:55:49;;;;;;;9.40;3.08;;;21.70;99.90;;;;;;6060197;23;20080;-92
2022/08/04 02:58:27;;;;;;;9.30;3.50;;;21.70;99.90;;;;;;6059651;23;20027;-92
2022/08/04 03:01:10;;;;;;;9.32;3.55;;;21.70;99.90;;;;;;6061185;23;20019;-92
2022/08/04 03:04:09;;;;;;;6.80;3.60;;;21.70;99.90;;;;;;6061710;23;20045;-92
2022/08/04 03:07:33;;;;;;;9.65;3.58;;;21.60;99.90;;;;;;6063356;23;20027;-92
2022/08/04 03:10:43;;;;;;;10.38;3.67;;;21.70;99.90;;;;;;6059664;23;20015;-92
2022/08/04 03:14:00;;;;;;;7.05;2.88;;;21.60;99.90;;;;;;6001672;23;20024;-91
2022/08/04 03:17:07;;;;;;;10.30;3.33;;;21.60;99.90;;;;;;6001274;23;20047;-92
2022/08/04 03:19:59;;;;;;;11.80;3.20;;;21.60;99.90;;;;;;6001088;23;20035;-93
2022/08/04 03:22:55;;;;;;;6.78;3.10;;;21.60;99.90;;;;;;6000826;23;20059;-92
2022/08/04 03:25:40;;;;;;;7.35;2.90;;;21.60;99.90;;;;;;6013555;23;20023;-92
2022/08/04 03:28:40;;;;;;;10.10;3.25;;;21.60;99.90;;;;;;6001143;23;20340;-93
2022/08/04 03:31:31;;;;;;;8.20;3.67;;;21.50;99.90;;;;;;6030786;23;20024;-92
2022/08/04 03:34:12;;;;;;;8.88;3.72;;;21.50;99.90;;;;;;6009560;23;20203;-92
2022/08/04 03:37:12;;;;;;;7.68;2.88;;;21.50;99.90;;;;;;5977475;23;20130;-92
2022/08/04 03:40:13;;;;;;;13.35;3.38;;;21.50;99.90;;;;;;6004581;23;20071;-92
2022/08/04 03:42:56;;;;;;;9.20;2.83;;;21.50;99.90;;;;;;6001257;23;20027;-92
2022/08/04 03:46:15;;;;;;;6.65;2.88;;;21.50;99.90;;;;;;6001176;23;20028;-93
2022/08/04 03:49:09;;;;;;;8.68;3.10;;;21.40;99.90;;;;;;5986520;23;20389;-92
2022/08/04 03:54:59;;;;;;;9.65;3.53;;;21.40;99.90;;;;;;6061172;23;20018;-92
2022/08/04 03:58:00;;;;;;;6.95;3.08;;;21.40;99.90;;;;;;6060057;23;20034;-92
2022/08/04 04:00:33;;;;;;;7.32;2.63;;;21.40;99.90;;;;;;6062755;23;20030;-92
2022/08/04 04:03:39;;;;;;;8.07;3.25;;;21.30;99.90;;;;;;6061230;23;20085;-92
2022/08/04 04:06:23;;;;;;;6.55;3.13;;;21.40;99.90;;;;;;6048210;23;20027;-93
2022/08/04 04:09:17;;;;;;;6.18;2.60;;;21.30;99.90;;;;;;6059494;23;20022;-93
2022/08/04 04:11:56;;;;;;;6.72;3.00;;;21.30;99.90;;;;;;6060554;23;20357;-92
2022/08/04 04:14:41;;;;;;;6.57;2.88;;;21.30;99.90;;;;;;6061106;23;20034;-92
2022/08/04 04:17:36;;;;;;;9.95;2.60;;;21.30;99.90;;;;;;6058976;23;20026;-92
2022/08/04 04:20:26;;;;;;;10.98;3.25;;;21.30;99.90;;;;;;6062409;23;20353;-92
2022/08/04 04:23:15;;;;;;;6.88;2.80;;;21.30;99.90;;;;;;6059168;23;20026;-92
2022/08/04 04:25:50;;;;;;;7.97;2.70;;;21.30;99.90;;;;;;6060538;23;20026;-92
2022/08/04 04:28:53;;;;;;;8.32;3.15;;;21.30;99.90;;;;;;6060965;23;20022;-92
2022/08/04 04:31:54;;;;;;;7.93;2.60;;;21.30;99.90;;;;;;5977898;23;20054;-92
2022/08/04 04:34:31;;;;;;;8.05;3.00;;;21.30;99.90;;;;;;6059379;23;20029;-93
2022/08/04 04:37:15;;;;;;;7.18;2.90;;;21.30;99.90;;;;;;6060639;23;20106;-92
2022/08/04 04:39:51;;;;;;;7.60;2.60;;;21.30;99.90;;;;;;6058556;23;20461;-93
2022/08/04 04:42:48;;;;;;;7.35;3.05;;;21.30;99.90;;;;;;6059407;23;20031;-92
2022/08/04 04:45:23;;;;;;;9.82;2.83;;;21.30;99.90;;;;;;6058621;23;20030;-93
2022/08/04 04:48:04;;;;;;;8.27;2.75;;;21.30;99.90;;;;;;6059265;23;20473;-92
2022/08/04 04:50:45;;;;;;;9.13;2.90;;;21.30;99.90;;;;;;6058519;23;20027;-92
2022/08/04 04:53:18;;;;;;;5.33;2.80;;;21.30;99.90;;;;;;6061172;23;20027;-91
2022/08/04 04:55:50;;;;;;;9.20;3.00;;;21.40;99.90;;;;;;6060111;23;20259;-87
2022/08/04 04:58:18;;;;;;;7.60;2.55;;;21.40;99.90;;;;;;6060223;23;20054;-82
2022/08/04 05:01:10;;;;;;;7.00;2.75;;;21.40;99.90;;;;;;6060105;23;20520;-81
2022/08/04 05:03:52;;;;;;;7.30;2.70;;;21.40;99.90;;;;;;6060186;23;20022;-82
2022/08/04 05:06:35;;;;;;;9.05;3.00;;;21.50;99.90;;;;;;6060309;23;20019;-85
2022/08/04 05:09:18;;;;;;;8.77;3.05;;;21.50;99.90;;;;;;6060333;23;20065;-85
2022/08/04 05:12:21;;;;;;;8.00;2.80;;;21.50;99.90;;;;;;6060220;23;20410;-86
2022/08/04 05:14:50;;;;;;;9.63;2.63;;;21.60;99.90;;;;;;6065004;23;20106;-84
2022/08/04 05:17:21;;;;;;;9.50;2.55;;;21.60;99.90;;;;;;6060567;23;20023;-85
2022/08/04 05:19:57;;;;;;;7.57;3.00;;;21.60;99.90;;;;;;6059915;23;20042;-84
2022/08/04 05:22:27;;;;;;;9.75;2.78;;;21.70;99.90;;;;;;6060613;23;20098;-84
2022/08/04 05:25:02;;;;;;;6.28;2.85;;;21.70;99.90;;;;;;6060999;23;20029;-83
2022/08/04 05:27:35;;;;;;;7.63;2.90;;;21.70;99.90;;;;;;6060349;23;20080;-84
2022/08/04 05:30:04;;;;;;;8.82;3.03;;;21.80;99.90;;;;;;6059104;23;20102;-84
2022/08/04 05:32:36;;;;;;;8.15;2.85;;;21.90;99.90;;;;;;6060476;23;20023;-84
2022/08/04 05:35:08;;;;;;;7.97;2.75;;;21.90;99.90;;;;;;6060212;23;20442;-84
2022/08/04 05:37:38;;;;;;;6.63;3.00;;;22.00;99.90;;;;;;6060475;23;20050;-84
2022/08/04 05:40:07;;;;;;;6.68;3.00;;;22.00;99.90;;;;;;6060065;23;20021;-84
2022/08/04 05:42:37;;;;;;;7.43;2.88;;;22.10;99.90;;;;;;6060442;23;20356;-83
2022/08/04 05:45:05;;;;;;;9.93;2.90;;;22.10;99.90;;;;;;6060180;23;20464;-88
2022/08/04 05:47:33;;;;;;;8.57;3.15;;;22.30;99.90;;;;;;6060286;23;20019;-87
2022/08/04 05:50:00;;;;;;;9.80;3.28;;;22.30;99.90;;;;;;6059909;23;20175;-84
2022/08/04 05:52:29;;;;;;;9.68;3.55;;;22.50;99.90;;;;;;6060333;23;20046;-84
2022/08/04 05:54:56;;;;;;;10.60;3.25;;;22.50;99.90;;;;;;6060679;23;20077;-84
2022/08/04 05:57:24;;;;;;;6.63;2.85;;;22.60;99.90;;;;;;6061564;23;20019;-86
2022/08/04 05:59:51;;;;;;;7.90;2.85;;;22.70;99.90;;;;;;6060749;23;20057;-87
2022/08/04 06:02:18;;;;;;;7.72;2.55;;;22.80;99.90;;;;;;6058924;23;20029;-83
2022/08/04 06:04:50;;;;;;;8.13;2.60;;;22.90;99.90;;;;;;6059866;23;20410;-83
2022/08/04 06:07:17;;;;;;;5.30;2.50;;;23.00;99.90;;;;;;6061087;23;20022;-83
2022/08/04 06:09:46;;;;;;;5.82;2.38;;;23.00;99.90;;;;;;6060111;23;20404;-84
2022/08/04 06:12:18;;;;;;;5.82;2.50;;;23.20;99.90;;;;;;6057824;23;20023;-84
2022/08/04 06:14:47;;;;;;;5.07;2.47;;;23.30;99.90;;;;;;6058607;23;20046;-84
2022/08/04 06:17:22;;;;;;;8.50;3.13;;;23.30;99.90;;;;;;6059121;23;20015;-84
2022/08/04 06:19:52;;;;;;;8.88;3.17;;;23.50;99.90;;;;;;6058948;23;20022;-84
2022/08/04 06:22:20;;;;;;;7.15;2.88;;;23.50;99.90;;;;;;6058191;23;20045;-85
2022/08/04 06:24:49;;;;;;;5.50;2.50;;;23.70;99.90;;;;;;6058988;23;20029;-84
2022/08/04 06:27:16;;;;;;;6.13;2.53;;;23.80;99.90;;;;;;6060005;23;20464;-82
2022/08/04 06:29:43;;;;;;;7.07;2.70;;;23.90;99.90;;;;;;6059418;23;20025;-85
2022/08/04 06:32:23;;;;;;;5.82;2.53;;;24.00;99.90;;;;;;6060568;23;20018;-85
2022/08/04 06:34:52;;;;;;;9.00;2.80;;;24.10;99.90;;;;;;6060539;23;20026;-86
2022/08/04 06:37:20;;;;;;;8.43;2.95;;;24.20;99.90;;;;;;6060691;23;20096;-85
2022/08/04 06:39:48;;;;;;;4.97;2.35;;;24.40;99.90;;;;;;6060102;23;20034;-86
2022/08/04 06:42:16;;;;;;;6.07;2.70;;;24.50;99.90;;;;;;6060856;23;20029;-86
2022/08/04 06:44:46;;;;;;;6.30;2.50;;;24.60;99.90;;;;;;6058731;23;20023;-85
2022/08/04 06:47:17;;;;;;;6.40;2.72;;;24.70;99.90;;;;;;6059099;23;20050;-82
2022/08/04 06:49:45;;;;;;;;;;;24.70;98.90;;;;;;6060412;23;20061;-82
2022/08/04 06:52:16;;;;;;;4.63;2.53;;;24.80;97.20;;;;;;6060898;23;19996;-82
2022/08/04 06:54:43;;;;;;;8.15;2.33;;;25.00;97.00;;;;;;6060057;23;20023;-82
2022/08/04 06:57:14;;;;;;;5.25;2.28;;;25.00;96.90;;;;;;6061200;23;20022;-83
2022/08/04 06:59:42;;;;;;;6.15;2.65;;;25.10;96.80;;;;;;6060909;23;20313;-83
2022/08/04 07:02:13;;;;;;;6.88;2.30;;;25.20;97.70;;;;;;6060642;23;20029;-82
2022/08/04 07:04:40;;;;;;;;;;;25.30;96.20;;;;;;6061012;23;20098;-82
2022/08/04 07:07:07;;;;;;;12.07;2.42;;;25.30;95.40;;;;;;6059445;23;20008;-82
2022/08/04 07:09:34;;;;;;;5.50;2.60;;;25.40;95.90;;;;;;6060297;23;20051;-82
2022/08/04 07:12:01;;;;;;;7.22;2.47;;;25.50;94.70;;;;;;6060189;23;20029;-83
2022/08/04 07:14:31;;;;;;;5.38;2.35;;;25.60;95.20;;;;;;6059255;23;20029;-82
2022/08/04 07:16:59;;;;;;;9.55;2.72;;;25.60;95.00;;;;;;6060519;23;20528;-83
2022/08/04 07:19:26;;;;;;;7.05;2.60;;;25.70;93.80;;;;;;6059577;23;20019;-83
2022/08/04 07:21:53;;;;;;;7.63;2.47;;;25.80;93.90;;;;;;6060139;23;20027;-83
2022/08/04 07:24:20;;;;;;;4.88;2.38;;;25.90;92.90;;;;;;6059829;23;20045;-83
2022/08/04 07:26:50;;;;;;;6.55;2.30;;;25.90;94.70;;;;;;6061153;23;20027;-85
2022/08/04 07:29:17;;;;;;;7.80;2.85;;;26.00;94.20;;;;;;6059962;23;20298;-85
2022/08/04 07:31:47;;;;;;;5.85;2.50;;;26.10;93.10;;;;;;6059705;23;20098;-85
2022/08/04 07:34:14;;;;;;;8.85;2.70;;;26.10;92.20;;;;;;6058439;23;20019;-85
2022/08/04 07:36:41;;;;;;;6.63;2.55;;;26.20;92.40;;;;;;6060638;23;20349;-85
2022/08/04 07:39:08;;;;;;;6.32;2.63;;;26.20;92.70;;;;;;6058413;23;20398;-85
2022/08/04 07:41:35;;;;;;;4.45;2.60;;;26.30;91.60;;;;;;6060271;23;20449;-83
2022/08/04 07:44:03;;;;;;;5.53;2.70;;;26.30;91.90;;;;;;6059092;23;20107;-84
2022/08/04 07:46:30;;;;;;;7.97;2.53;;;26.30;90.60;;;;;;6058959;23;20046;-82
2022/08/04 07:49:00;;;;;;;6.18;2.30;;;26.30;91.70;;;;;;6059873;23;20799;-84
2022/08/04 07:51:27;;;;;;;11.48;2.90;;;26.40;89.80;;;;;;6058575;23;20023;-88
2022/08/04 07:53:55;;;;;;;4.72;2.20;;;26.50;89.80;;;;;;6057318;23;20477;-84
2022/08/04 07:56:22;;;;;;;8.02;2.55;;;26.50;89.00;;;;;;6058159;23;20023;-84
2022/08/04 07:58:49;;;;;;;9.02;2.83;;;26.50;89.50;;;;;;6057133;23;20110;-83
2022/08/04 08:01:16;;;;;;;5.07;2.42;;;26.60;91.40;;;;;;6055908;23;20410;-85
2022/08/04 08:03:43;;;;;;;4.97;2.65;;;26.60;91.40;;;;;;6058738;23;20031;-85
2022/08/04 08:06:12;;;;;;;8.50;2.90;;;26.60;90.60;;;;;;6060320;23;20042;-84
2022/08/04 08:08:39;;;;;;;7.93;2.65;;;26.70;90.50;;;;;;6061052;23;20022;-85
2022/08/04 08:11:06;;;;;;;6.22;2.63;;;26.70;91.30;;;;;;6060229;23;20015;-85
2022/08/04 08:13:33;;;;;;;4.70;2.50;;;26.80;88.80;;;;;;6059584;23;20415;-86
2022/08/04 08:16:01;;;;;;;6.20;2.53;;;26.90;89.00;;;;;;6059140;23;20023;-83
2022/08/04 08:18:28;;;;;;;6.30;2.33;;;27.00;89.20;;;;;;6058547;23;20080;-84
2022/08/04 08:20:55;;;;;;;5.78;2.53;;;27.00;88.20;;;;;;6058817;23;20022;-83
2022/08/04 08:23:24;;;;;;;9.13;2.33;;;27.10;89.10;;;;;;6058868;23;20022;-86
2022/08/04 08:25:51;;;;;;;6.60;2.67;;;27.10;89.70;;;;;;6059159;23;20097;-86
2022/08/04 08:28:18;;;;;;;8.05;2.50;;;27.20;89.60;;;;;;6059411;23;20027;-86
2022/08/04 08:30:45;;;;;;;5.70;2.35;;;27.20;89.40;;;;;;6059592;23;20094;-86
2022/08/04 08:33:13;;;;;;;5.25;2.30;;;27.20;89.30;;;;;;6058715;23;20074;-86
2022/08/04 08:35:50;;;;;;;6.95;2.40;;;27.20;87.30;;;;;;6060505;23;20070;-85
2022/08/04 08:38:18;;;;;;;8.20;2.35;;;27.30;86.80;;;;;;6060970;23;20038;-84
2022/08/04 08:40:52;;;;;;;7.03;2.47;;;27.40;87.40;;;;;;6060257;23;20019;-84
2022/08/04 08:43:36;;;;;;;5.30;2.13;;;27.50;86.20;;;;;;6060357;23;20023;-83
2022/08/04 08:46:38;;;;;;;6.03;2.40;;;27.60;85.80;;;;;;6060967;23;20046;-84
2022/08/04 08:49:28;;;;;;;5.15;2.30;;;27.70;86.50;;;;;;6069822;23;20136;-92
2022/08/04 08:52:24;;;;;;;6.10;2.40;;;27.70;87.00;;;;;;6092323;23;20019;-89
2022/08/04 08:54:58;;;;;;;4.97;2.00;;;27.80;85.60;;;;;;6060076;23;20077;-87
2022/08/04 08:57:37;;;;;;;5.60;2.17;;;27.90;84.20;;;;;;6060621;23;20392;-87
2022/08/04 09:00:10;;;;;;;5.25;1.77;;;28.00;86.00;;;;;;6060272;23;20019;-87
2022/08/04 09:03:00;;;;;;;5.82;2.13;;;28.00;85.40;;;;;;6060194;23;20023;-87
2022/08/04 09:05:56;;;;;;;4.10;1.75;;;28.00;85.10;;;;;;6060329;23;20073;-87
2022/08/04 09:08:45;;;;;;;6.35;1.90;;;28.20;84.20;;;;;;6061075;23;20155;-89
2022/08/04 09:11:15;;;;;;;5.18;2.20;;;28.20;83.10;;;;;;6060074;23;20015;-87
2022/08/04 09:13:46;;;;;;;4.40;2.17;;;28.10;85.20;;;;;;6060240;23;20093;-87
2022/08/04 09:16:17;;;;;;;5.65;2.20;;;28.10;85.80;;;;;;6060540;23;20019;-87
2022/08/04 09:18:47;;;;;;;5.15;1.88;;;28.10;86.60;;;;;;6061106;23;20027;-87
2022/08/04 09:21:22;;;;;;;3.63;1.92;;;28.00;84.30;;;;;;6058891;23;20054;-87
2022/08/04 09:24:00;;;;;;;4.65;2.00;;;28.00;86.70;;;;;;6060156;23;20019;-87
2022/08/04 09:26:32;;;;;;;5.65;2.17;;;28.00;86.00;;;;;;6060186;23;20437;-87
2022/08/04 09:29:08;;;;;;;5.68;2.30;;;28.00;86.70;;;;;;6059917;23;20042;-88
2022/08/04 09:31:41;;;;;;;6.78;2.05;;;28.10;85.60;;;;;;6060587;23;20438;-89
2022/08/04 09:34:11;;;;;;;5.57;2.20;;;28.20;87.50;;;;;;6060047;23;20023;-90
2022/08/04 09:36:46;;;;;;;7.93;2.60;;;28.30;88.60;;;;;;6059143;23;20606;-90
2022/08/04 09:39:22;;;;;;;5.68;2.05;;;28.40;82.90;;;;;;6060311;23;20030;-88
2022/08/04 09:41:59;;;;;;;4.35;2.08;;;28.50;83.20;;;;;;6060704;23;20030;-87
2022/08/04 09:44:34;;;;;;;4.90;2.10;;;28.50;84.00;;;;;;6060173;23;20445;-87
2022/08/04 09:47:13;;;;;;;6.07;2.30;;;28.40;85.80;;;;;;6060275;23;20098;-87
2022/08/04 09:49:46;;;;;;;6.60;2.40;;;28.30;85.00;;;;;;6059972;23;20053;-87
2022/08/04 09:52:23;;;;;;;4.80;2.00;;;28.30;84.30;;;;;;6060341;23;20030;-88
2022/08/04 09:54:55;;;;;;;7.50;2.40;;;28.20;86.60;;;;;;6059778;23;20047;-87
2022/08/04 09:57:39;;;;;;;12.38;2.65;;;28.20;85.50;;;;;;6060605;23;20022;-88
2022/08/04 10:00:10;;;;;;;7.72;2.55;;;28.10;87.80;;;;;;6059864;23;20433;-88
2022/08/04 10:02:42;;;;;;;5.00;2.10;;;28.00;86.80;;;;;;6059384;23;20026;-88
2022/08/04 10:05:16;;;;;;;7.50;2.72;;;28.00;88.90;;;;;;6059798;23;20038;-86
2022/08/04 10:07:57;;;;;;;7.28;2.67;;;27.90;89.10;;;;;;6058645;23;20439;-86
2022/08/04 10:10:34;;;;;;;11.32;2.80;;;27.90;89.00;;;;;;6059906;23;20023;-86
2022/08/04 10:13:18;;;;;;;8.27;2.55;;;27.90;89.70;;;;;;6059809;23;20057;-86
2022/08/04 10:15:58;;;;;;;7.13;2.90;;;27.90;88.00;;;;;;6058600;23;20361;-86
2022/08/04 10:18:35;;;;;;;8.02;2.40;;;28.00;86.00;;;;;;6060054;23;20416;-86
2022/08/04 10:21:07;;;;;;;7.20;2.50;;;28.20;85.70;;;;;;6059997;23;20441;-87
2022/08/04 10:23:39;;;;;;;5.68;2.22;;;28.30;82.30;;;;;;6059458;23;20027;-87
2022/08/04 10:26:20;;;;;;;8.02;2.30;;;28.60;83.00;;;;;;6060197;23;20094;-87
2022/08/04 10:28:52;;;;;;;8.68;2.38;;;28.70;81.50;;;;;;6059767;23;20505;-87
2022/08/04 10:31:24;;;;;;;5.72;2.42;;;28.60;81.00;;;;;;6059836;23;20015;-86
2022/08/04 10:33:55;;;;;;;10.45;2.55;;;28.60;82.00;;;;;;6059294;23;20023;-87
2022/08/04 10:36:24;;;;;;;8.80;3.05;;;28.50;84.80;;;;;;6060166;23;20077;-87
2022/08/04 10:38:57;;;;;;;6.20;2.90;;;28.50;82.70;;;;;;6058501;23;20022;-85
2022/08/04 10:41:30;;;;;;;8.82;3.00;;;28.40;83.90;;;;;;6060877;23;20113;-85
2022/08/04 10:44:06;;;;;;;6.28;2.95;;;28.30;85.70;;;;;;6060662;23;20085;-86
2022/08/04 10:46:37;;;;;;;10.23;3.28;;;28.30;85.80;;;;;;6061224;23;20401;-87
2022/08/04 10:49:08;;;;;;;8.82;3.00;;;28.20;85.80;;;;;;6060916;23;20059;-86
2022/08/04 10:51:41;;;;;;;10.18;3.70;;;28.30;86.80;;;;;;6059579;23;20025;-86
2022/08/04 10:54:13;;;;;;;8.77;3.28;;;28.20;87.60;;;;;;6060647;23;20488;-85
2022/08/04 10:56:44;;;;;;;7.90;3.10;;;28.20;87.20;;;;;;6059778;23;20031;-86
2022/08/04 10:59:15;;;;;;;9.77;3.78;;;28.10;85.70;;;;;;6061136;23;20022;-85
2022/08/04 11:01:46;;;;;;;8.55;3.63;;;28.10;86.50;;;;;;6060956;23;20043;-86
2022/08/04 11:04:18;;;;;;;14.73;3.58;;;28.20;85.70;;;;;;6060679;23;20441;-87
2022/08/04 11:06:46;;;;;;;12.40;3.55;;;28.30;84.50;;;;;;6061010;23;20026;-86
2022/08/04 11:09:13;;;;;;;11.25;3.75;;;28.30;85.60;;;;;;6060758;23;20023;-86
2022/08/04 11:11:45;;;;;;;10.60;3.50;;;28.30;87.50;;;;;;6061124;23;20094;-86
2022/08/04 11:14:15;;;;;;;14.13;3.60;;;28.30;88.40;;;;;;6060281;23;20472;-87
2022/08/04 11:16:48;;;;;;;8.47;3.53;;;28.30;86.30;;;;;;6061240;23;20101;-86
2022/08/04 11:19:25;;;;;;;12.20;3.95;;;28.30;85.20;;;;;;6060765;23;20022;-87
2022/08/04 11:21:56;;;;;;;10.10;3.95;;;28.40;84.00;;;;;;6061230;23;20015;-87
2022/08/04 11:24:27;;;;;;;11.35;3.60;;;28.40;84.40;;;;;;6060438;23;20057;-86
2022/08/04 11:26:58;;;;;;;10.50;4.25;;;28.50;86.60;;;;;;6061287;23;20027;-86
2022/08/04 11:29:29;;;;;;;11.27;3.38;;;28.50;87.00;;;;;;6058954;23;20130;-85
2022/08/04 11:32:00;;;;;;;10.68;3.30;;;28.60;83.90;;;;;;6062003;23;20026;-88
2022/08/04 11:34:27;;;;;;;7.70;3.30;;;28.50;83.90;;;;;;6060602;23;20053;-91
2022/08/04 11:37:00;;;;;;;21.65;3.80;;;28.60;82.90;;;;;;6059278;23;20370;-88
2022/08/04 11:39:30;;;;;;;10.02;3.20;;;28.60;85.30;;;;;;6057702;23;20453;-86
2022/08/04 11:42:00;;;;;;;8.35;3.72;;;28.60;83.40;;;;;;6060541;23;20023;-86
2022/08/04 11:44:32;;;;;;;7.50;3.00;;;28.60;83.90;;;;;;6060828;23;20023;-85
2022/08/04 11:47:03;;;;;;;9.02;3.13;;;28.60;84.70;;;;;;6060594;23;20499;-86
2022/08/04 11:49:35;;;;;;;5.95;2.70;;;28.60;82.10;;;;;;6058831;23;20072;-86
2022/08/04 11:52:03;;;;;;;12.32;2.75;;;28.60;83.20;;;;;;6058523;23;20335;-86
2022/08/04 11:54:32;;;;;;;12.70;2.25;;;28.60;81.10;;;;;;6060029;23;20027;-86
2022/08/04 11:56:59;;;;;;;7.10;3.00;;;28.60;81.20;;;;;;6060927;23;20088;-86
2022/08/04 11:59:27;;;;;;;6.10;2.90;;;28.50;84.90;;;;;;6060219;23;20043;-93
2022/08/04 12:02:12;;;;;;;11.15;3.25;;;28.40;84.00;;;;;;6061002;23;20026;-85
2022/08/04 12:04:46;;;;;;;11.60;2.15;;;28.30;83.30;;;;;;6059632;23;20018;-86
2022/08/04 12:07:19;;;;;;;12.30;2.83;;;28.30;87.60;;;;;;6060998;23;20029;-85
2022/08/04 12:09:56;;;;;;;11.98;2.42;;;28.30;86.00;;;;;;6060454;23;20022;-84
2022/08/04 12:12:28;;;;;;;4.10;2.00;;;28.30;83.90;;;;;;6060310;23;20019;-84
2022/08/04 12:14:59;;;;;;;10.15;2.70;;;28.30;83.80;;;;;;6060376;23;20481;-84
2022/08/04 12:17:32;;;;;;;9.27;2.30;;;28.30;83.00;;;;;;6060883;23;20033;-85
2022/08/04 12:20:06;;;;;;;10.88;2.55;;;28.20;84.00;;;;;;6060634;23;20046;-84
2022/08/04 12:22:37;;;;;;;11.57;2.72;;;28.20;83.50;;;;;;6060174;23;20019;-83
2022/08/04 12:25:06;;;;;;;11.88;3.08;;;28.10;85.20;;;;;;6060499;23;20019;-83
2022/08/04 12:27:36;;;;;;;10.50;3.50;;;28.10;85.80;;;;;;6060670;23;20029;-84
2022/08/04 12:30:04;;;;;;;9.95;2.97;;;28.10;85.80;;;;;;6060917;23;20018;-84
2022/08/04 12:32:38;;;;;;;8.57;2.58;;;28.00;85.60;;;;;;6060300;23;20102;-84
2022/08/04 12:35:12;;;;;;;10.63;2.33;;;28.00;85.40;;;;;;6060424;23;20023;-84
2022/08/04 12:37:47;;;;;;;7.40;2.60;;;28.00;85.90;;;;;;6060597;23;20046;-84
2022/08/04 12:40:17;;;;;;;8.75;2.30;;;28.00;86.20;;;;;;6060067;23;20023;-86
2022/08/04 12:42:57;;;;;;;9.20;2.30;;;28.00;86.20;;;;;;6060796;23;20042;-84
2022/08/04 12:45:24;;;;;;;9.15;2.80;;;27.90;84.60;;;;;;6060286;23;20023;-84
2022/08/04 12:47:56;;;;;;;6.22;2.55;;;28.00;86.70;;;;;;6060988;23;20053;-84
2022/08/04 12:50:23;;;;;;;8.65;2.78;;;28.00;86.50;;;;;;6060292;23;20093;-84
2022/08/04 12:52:54;;;;;;;9.02;2.60;;;28.00;87.80;;;;;;6059832;23;20019;-84
2022/08/04 12:55:24;;;;;;;8.50;2.95;;;28.00;86.50;;;;;;6060369;23;20037;-84
2022/08/04 12:57:52;;;;;;;8.38;3.05;;;28.00;85.30;;;;;;6060488;23;20755;-85
2022/08/04 13:00:27;;;;;;;10.57;3.20;;;28.00;86.50;;;;;;6059833;23;20058;-85
2022/08/04 13:03:01;;;;;;;15.05;3.25;;;28.00;86.60;;;;;;6060131;23;20068;-84
2022/08/04 13:05:30;;;;;;;10.20;3.25;;;28.00;85.80;;;;;;6059604;23;20019;-85
2022/08/04 13:07:58;;;;;;;13.52;3.85;;;28.00;84.90;;;;;;6060754;23;20050;-84
2022/08/04 13:10:25;;;;;;;13.00;3.78;;;28.00;86.00;;;;;;6060042;23;20458;-84
2022/08/04 13:12:55;;;;;;;12.10;3.50;;;28.00;87.10;;;;;;6060018;23;20354;-84
2022/08/04 13:15:23;;;;;;;10.70;3.47;;;28.10;89.60;;;;;;6060405;23;20023;-84
2022/08/04 13:17:53;;;;;;;8.77;3.55;;;28.10;88.20;;;;;;6060411;23;20043;-84
2022/08/04 13:20:29;;;;;;;8.98;3.13;;;28.10;88.40;;;;;;6060176;23;20102;-84
2022/08/04 13:23:03;;;;;;;9.52;3.40;;;28.20;87.60;;;;;;6060123;23;20029;-84
2022/08/04 13:25:32;;;;;;;7.68;3.17;;;28.10;87.40;;;;;;6059925;23;20037;-84
2022/08/04 13:28:01;;;;;;;9.23;2.95;;;28.10;86.70;;;;;;6060508;23;20094;-85